Time;durP1;ratioP1;P1;durP2;ratioP2;P2;SDS_P1;SDS_P2;PMS_P1;PMS_P2;Temp;Humidity;BMP_temperature;BMP_pressure;BME280_temperature;BME280_humidity;BME280_pressure;Samples;Min_cycle;Max_cycle;Signal;HPM_P1;HPM_P2
2020/12/13 00:00:59;;;;;;;20.92;12.45;;;3.40;99.90;;;;;;5036809;28;20049;-82
2020/12/13 00:03:26;;;;;;;23.27;14.07;;;3.30;99.90;;;;;;5035876;28;20073;-82
2020/12/13 00:05:53;;;;;;;26.00;13.68;;;3.20;99.90;;;;;;5034398;28;20084;-82
2020/12/13 00:08:20;;;;;;;22.75;13.77;;;3.30;99.90;;;;;;5035095;28;20073;-83
2020/12/13 00:10:48;;;;;;;18.98;11.93;;;3.30;99.90;;;;;;5035467;28;20056;-83
2020/12/13 00:13:14;;;;;;;28.15;13.85;;;3.20;99.90;;;;;;5041153;28;20050;-84
2020/12/13 00:15:40;;;;;;;22.83;14.43;;;3.30;99.90;;;;;;5041525;28;20041;-84
2020/12/13 00:18:07;;;;;;;23.33;12.80;;;3.30;99.90;;;;;;5042105;28;20095;-83
2020/12/13 00:20:33;;;;;;;25.08;12.88;;;3.30;99.90;;;;;;5040362;28;20130;-83
2020/12/13 00:22:59;;;;;;;22.25;13.25;;;3.20;99.90;;;;;;5040407;28;20454;-83
2020/12/13 00:25:26;;;;;;;22.83;14.15;;;3.20;99.90;;;;;;5038168;28;20041;-83
2020/12/13 00:27:53;;;;;;;25.42;14.77;;;3.10;99.90;;;;;;5038119;28;20156;-83
2020/12/13 00:30:19;;;;;;;24.65;14.45;;;3.10;99.90;;;;;;5039685;28;20053;-83
2020/12/13 00:32:45;;;;;;;28.80;15.18;;;3.10;99.90;;;;;;5039241;28;20486;-83
2020/12/13 00:35:13;;;;;;;25.42;13.80;;;3.00;99.90;;;;;;5037586;28;20137;-83
2020/12/13 00:37:40;;;;;;;24.98;14.10;;;3.10;99.90;;;;;;5038038;28;20052;-82
2020/12/13 00:40:07;;;;;;;24.02;13.57;;;3.00;99.90;;;;;;5036524;28;20084;-83
2020/12/13 00:42:33;;;;;;;26.30;14.98;;;3.00;99.90;;;;;;5036039;28;20080;-83
2020/12/13 00:44:59;;;;;;;26.25;14.07;;;2.90;99.90;;;;;;5037787;28;20055;-84
2020/12/13 00:47:27;;;;;;;27.65;16.08;;;3.00;99.90;;;;;;5037608;28;20052;-83
2020/12/13 00:49:53;;;;;;;28.67;15.32;;;2.90;99.90;;;;;;5037724;28;20497;-83
2020/12/13 00:52:19;;;;;;;26.00;15.60;;;3.00;99.90;;;;;;5036934;28;20088;-83
2020/12/13 00:54:46;;;;;;;30.52;15.48;;;3.00;99.90;;;;;;5036847;28;20046;-83
2020/12/13 00:57:12;;;;;;;26.27;15.10;;;2.90;99.90;;;;;;5036566;28;20119;-83
2020/12/13 00:59:38;;;;;;;24.73;13.85;;;2.80;99.90;;;;;;5036198;28;20091;-83
2020/12/13 01:02:05;;;;;;;24.20;13.63;;;2.90;99.90;;;;;;5034983;28;20073;-82
2020/12/13 01:04:33;;;;;;;22.25;13.15;;;2.90;99.90;;;;;;5036246;28;20261;-84
2020/12/13 01:07:04;;;;;;;25.42;14.70;;;3.00;99.90;;;;;;5034433;28;20421;-83
2020/12/13 01:09:31;;;;;;;23.17;14.00;;;3.00;99.90;;;;;;5034384;28;20536;-83
2020/12/13 01:11:57;;;;;;;25.42;14.60;;;3.00;99.90;;;;;;5035524;28;20069;-83
2020/12/13 01:14:24;;;;;;;23.85;14.70;;;2.90;99.90;;;;;;5033934;28;20103;-83
2020/12/13 01:16:53;;;;;;;24.77;14.32;;;3.00;99.90;;;;;;5034238;28;20107;-83
2020/12/13 01:19:21;;;;;;;26.40;15.30;;;2.80;99.90;;;;;;5035142;28;20053;-83
2020/12/13 01:21:48;;;;;;;29.45;14.90;;;2.80;99.90;;;;;;5034946;28;20042;-83
2020/12/13 01:24:16;;;;;;;25.10;15.52;;;2.80;99.90;;;;;;5035024;28;20045;-83
2020/12/13 01:26:43;;;;;;;27.67;14.35;;;2.70;99.90;;;;;;5034622;28;20475;-81
2020/12/13 01:29:09;;;;;;;27.02;14.43;;;2.80;99.90;;;;;;5033708;28;20140;-83
2020/12/13 01:31:35;;;;;;;25.45;13.98;;;2.80;99.90;;;;;;5034833;28;20566;-83
2020/12/13 01:34:02;;;;;;;23.20;13.30;;;2.80;99.90;;;;;;5033184;28;20107;-83
2020/12/13 01:36:29;;;;;;;23.30;13.60;;;2.80;99.90;;;;;;5034235;28;20045;-83
2020/12/13 01:38:55;;;;;;;25.27;14.70;;;2.90;99.90;;;;;;5034586;28;20080;-83
2020/12/13 01:41:21;;;;;;;25.60;14.63;;;3.00;99.90;;;;;;5033973;28;20080;-83
2020/12/13 01:43:56;;;;;;;25.52;14.85;;;2.80;99.90;;;;;;5034297;28;20053;-83
2020/12/13 01:46:23;;;;;;;24.73;15.32;;;2.70;99.90;;;;;;5034294;28;20486;-83
2020/12/13 01:48:57;;;;;;;24.58;14.05;;;2.70;99.90;;;;;;5034124;28;20463;-83
2020/12/13 01:51:40;;;;;;;25.05;14.48;;;2.70;99.90;;;;;;5034283;28;20118;-83
2020/12/13 01:54:11;;;;;;;24.67;14.75;;;2.80;99.90;;;;;;5032334;28;20053;-80
2020/12/13 01:56:59;;;;;;;24.58;13.60;;;2.80;99.90;;;;;;5033302;28;20056;-83
2020/12/13 01:59:26;;;;;;;22.33;13.48;;;2.80;99.90;;;;;;5032299;28;20050;-84
2020/12/13 02:01:59;;;;;;;27.42;14.57;;;2.80;99.90;;;;;;5039365;28;20053;-84
2020/12/13 02:04:28;;;;;;;23.73;14.35;;;2.70;99.90;;;;;;5038321;28;20554;-84
2020/12/13 02:06:55;;;;;;;29.30;16.00;;;2.60;99.90;;;;;;5037317;28;20544;-84
2020/12/13 02:09:23;;;;;;;24.35;14.25;;;2.50;99.90;;;;;;5036582;28;20046;-84
2020/12/13 02:11:51;;;;;;;27.23;15.48;;;2.50;99.90;;;;;;5036798;28;20049;-84
2020/12/13 02:14:18;;;;;;;23.38;13.32;;;2.50;99.90;;;;;;5038294;28;20077;-84
2020/12/13 02:16:48;;;;;;;27.40;14.93;;;2.60;99.90;;;;;;5036168;28;20049;-81
2020/12/13 02:19:18;;;;;;;29.17;16.15;;;2.60;99.90;;;;;;5036572;28;20060;-84
2020/12/13 02:21:45;;;;;;;25.05;14.23;;;2.50;99.90;;;;;;5037328;28;20497;-84
2020/12/13 02:24:12;;;;;;;26.50;15.30;;;2.50;99.90;;;;;;5036909;28;20051;-83
2020/12/13 02:26:43;;;;;;;25.73;14.90;;;2.50;99.90;;;;;;5036355;28;20088;-84
2020/12/13 02:29:10;;;;;;;28.42;15.63;;;2.60;99.90;;;;;;5036295;28;20105;-83
2020/12/13 02:31:36;;;;;;;26.15;14.90;;;2.60;99.90;;;;;;5034587;28;20128;-83
2020/12/13 02:34:05;;;;;;;25.35;14.75;;;2.60;99.90;;;;;;5035657;28;20133;-83
2020/12/13 02:36:32;;;;;;;27.63;14.98;;;2.60;99.90;;;;;;5035551;28;20080;-83
2020/12/13 02:38:59;;;;;;;32.60;16.40;;;2.60;99.90;;;;;;5035782;28;20088;-83
2020/12/13 02:41:26;;;;;;;23.60;14.63;;;2.70;99.90;;;;;;5033831;28;20052;-83
2020/12/13 02:43:52;;;;;;;25.95;14.63;;;2.70;99.90;;;;;;5035090;28;20060;-81
2020/12/13 02:46:19;;;;;;;21.77;13.98;;;2.60;99.90;;;;;;5038711;28;20077;-84
2020/12/13 02:48:46;;;;;;;29.95;15.40;;;2.70;99.90;;;;;;5055878;28;20080;-84
2020/12/13 02:51:12;;;;;;;28.40;14.93;;;2.70;99.90;;;;;;5056153;28;20025;-84
2020/12/13 02:53:38;;;;;;;25.00;15.57;;;2.60;99.90;;;;;;5056333;28;20033;-84
2020/12/13 02:56:04;;;;;;;23.80;14.07;;;2.70;99.90;;;;;;5041195;28;20045;-84
2020/12/13 02:58:31;;;;;;;23.67;14.07;;;2.70;99.90;;;;;;5040244;28;20498;-84
2020/12/13 03:00:57;;;;;;;24.88;14.90;;;2.60;99.90;;;;;;5038780;28;20071;-82
2020/12/13 03:03:24;;;;;;;27.15;15.32;;;2.50;99.90;;;;;;5039817;28;20077;-82
2020/12/13 03:05:51;;;;;;;27.42;15.35;;;2.60;99.90;;;;;;5040064;28;20088;-84
2020/12/13 03:08:17;;;;;;;25.02;14.82;;;2.60;99.90;;;;;;5039706;28;20054;-84
2020/12/13 03:10:44;;;;;;;25.55;14.60;;;2.70;99.90;;;;;;5039970;28;20669;-84
2020/12/13 03:13:11;;;;;;;26.80;15.27;;;2.80;99.90;;;;;;5040228;28;20049;-84
2020/12/13 03:15:37;;;;;;;21.35;13.85;;;2.90;99.90;;;;;;5040091;28;20053;-84
2020/12/13 03:18:03;;;;;;;22.10;13.88;;;3.00;99.90;;;;;;5038214;28;20151;-84
2020/12/13 03:20:29;;;;;;;23.80;13.55;;;3.10;99.90;;;;;;5039058;28;20089;-84
2020/12/13 03:22:56;;;;;;;20.50;13.50;;;3.00;99.90;;;;;;5040194;28;20482;-84
2020/12/13 03:25:22;;;;;;;22.90;14.43;;;3.00;99.90;;;;;;5039510;28;20049;-83
2020/12/13 03:27:48;;;;;;;21.88;13.52;;;3.00;99.90;;;;;;5040916;28;20049;-81
2020/12/13 03:30:14;;;;;;;22.10;13.60;;;3.00;99.90;;;;;;5043022;28;20045;-83
2020/12/13 03:32:41;;;;;;;21.48;13.85;;;3.00;99.90;;;;;;5043020;28;20056;-84
2020/12/13 03:35:07;;;;;;;24.88;14.68;;;3.00;99.90;;;;;;5042895;28;20084;-84
2020/12/13 03:37:34;;;;;;;24.27;15.60;;;3.00;99.90;;;;;;5042320;28;20458;-83
2020/12/13 03:40:00;;;;;;;22.13;13.43;;;3.00;99.90;;;;;;5042438;28;20049;-84
2020/12/13 03:42:26;;;;;;;21.75;13.93;;;3.00;99.90;;;;;;5038373;28;20081;-83
2020/12/13 03:44:53;;;;;;;21.02;13.82;;;3.00;99.90;;;;;;5036115;28;20046;-83
2020/12/13 03:47:19;;;;;;;25.77;15.27;;;3.00;99.90;;;;;;5034857;28;20059;-83
2020/12/13 03:49:46;;;;;;;24.33;14.70;;;2.90;99.90;;;;;;5041293;28;20049;-84
2020/12/13 03:52:12;;;;;;;20.35;13.85;;;2.90;99.90;;;;;;5041048;28;20263;-83
2020/12/13 03:54:38;;;;;;;19.08;12.95;;;3.10;99.90;;;;;;5041284;28;20077;-84
2020/12/13 03:57:05;;;;;;;18.17;12.60;;;3.10;99.90;;;;;;5041539;28;20041;-84
2020/12/13 03:59:31;;;;;;;17.98;12.27;;;3.20;99.90;;;;;;5040782;28;20077;-84
2020/12/13 04:01:57;;;;;;;18.73;12.88;;;3.20;99.90;;;;;;5040621;28;20084;-84
2020/12/13 04:04:24;;;;;;;18.98;12.70;;;3.20;99.90;;;;;;5040510;28;20076;-84
2020/12/13 04:06:51;;;;;;;21.20;13.02;;;3.30;99.90;;;;;;5041429;28;20141;-84
2020/12/13 04:09:17;;;;;;;18.65;12.25;;;3.30;99.90;;;;;;5041222;28;20059;-84
2020/12/13 04:11:45;;;;;;;19.10;12.40;;;3.30;99.90;;;;;;5039517;28;20048;-82
2020/12/13 04:14:11;;;;;;;18.65;12.45;;;3.30;99.90;;;;;;5040860;28;20072;-84
2020/12/13 04:16:38;;;;;;;18.63;12.25;;;3.30;99.90;;;;;;5040859;28;20080;-83
2020/12/13 04:19:05;;;;;;;14.60;11.50;;;3.40;99.90;;;;;;5040452;28;20056;-83
2020/12/13 04:21:31;;;;;;;16.42;11.80;;;3.50;99.90;;;;;;5039045;28;20084;-84
2020/12/13 04:23:57;;;;;;;16.42;11.70;;;3.50;99.90;;;;;;5039059;28;20071;-84
2020/12/13 04:26:24;;;;;;;15.05;10.85;;;3.50;99.90;;;;;;5040908;28;20099;-83
2020/12/13 04:28:51;;;;;;;16.27;11.30;;;3.50;99.90;;;;;;5039944;28;20053;-83
2020/12/13 04:31:17;;;;;;;15.88;11.50;;;3.60;99.90;;;;;;5038628;28;20065;-84
2020/12/13 04:33:43;;;;;;;15.65;11.10;;;3.50;99.90;;;;;;5039921;28;20065;-81
2020/12/13 04:36:09;;;;;;;15.32;10.82;;;3.60;99.90;;;;;;5040387;28;20049;-84
2020/12/13 04:38:36;;;;;;;16.10;11.02;;;3.40;99.90;;;;;;5039133;28;20536;-84
2020/12/13 04:41:02;;;;;;;17.27;11.20;;;3.50;99.90;;;;;;5039049;28;20069;-84
2020/12/13 04:43:28;;;;;;;17.13;12.10;;;3.60;99.90;;;;;;5039281;28;20053;-83
2020/12/13 04:45:56;;;;;;;16.77;11.45;;;3.60;99.90;;;;;;5039381;28;20077;-84
2020/12/13 04:48:24;;;;;;;16.42;12.20;;;3.50;99.90;;;;;;5039358;28;20498;-84
2020/12/13 04:50:51;;;;;;;17.55;11.82;;;3.50;99.90;;;;;;5038817;28;20064;-83
2020/12/13 04:53:18;;;;;;;14.45;11.10;;;3.40;99.90;;;;;;5037858;28;20103;-84
2020/12/13 04:55:54;;;;;;;16.50;11.93;;;3.40;99.90;;;;;;5039195;28;20046;-83
2020/12/13 04:58:22;;;;;;;16.58;12.15;;;3.50;99.90;;;;;;5038877;28;20047;-84
2020/12/13 05:00:57;;;;;;;16.17;12.25;;;3.40;99.90;;;;;;5039202;28;20052;-83
2020/12/13 05:03:24;;;;;;;18.15;12.80;;;3.30;99.90;;;;;;5038823;28;20128;-84
2020/12/13 05:05:57;;;;;;;17.73;12.57;;;3.20;99.90;;;;;;5038620;28;20056;-81
2020/12/13 05:08:27;;;;;;;17.27;12.85;;;3.20;99.90;;;;;;5038802;28;20045;-84
2020/12/13 05:10:55;;;;;;;17.80;12.45;;;3.30;99.90;;;;;;5038558;28;20050;-83
2020/12/13 05:13:21;;;;;;;16.90;11.55;;;3.20;99.90;;;;;;5038621;28;20510;-83
2020/12/13 05:15:48;;;;;;;16.35;11.73;;;3.20;99.90;;;;;;5038836;28;20065;-83
2020/12/13 05:18:15;;;;;;;19.15;12.90;;;3.30;99.90;;;;;;5037710;28;20050;-84
2020/12/13 05:20:43;;;;;;;16.48;12.07;;;3.40;99.90;;;;;;5038749;28;20590;-83
2020/12/13 05:23:10;;;;;;;18.25;12.05;;;3.30;99.90;;;;;;5036675;28;20053;-83
2020/12/13 05:25:38;;;;;;;16.23;11.43;;;3.40;99.90;;;;;;5035527;28;20570;-83
2020/12/13 05:28:07;;;;;;;14.88;10.90;;;3.20;99.90;;;;;;5038497;28;20058;-81
2020/12/13 05:30:38;;;;;;;17.42;12.13;;;3.30;99.90;;;;;;5035566;28;20552;-83
2020/12/13 05:33:22;;;;;;;15.07;11.02;;;3.30;99.90;;;;;;5035845;28;20052;-83
2020/12/13 05:35:48;;;;;;;17.40;12.15;;;3.40;99.90;;;;;;5033872;28;20052;-83
2020/12/13 05:38:16;;;;;;;16.90;11.98;;;3.30;99.90;;;;;;5037791;28;20109;-84
2020/12/13 05:40:43;;;;;;;17.48;11.77;;;3.30;99.90;;;;;;5039003;28;20058;-85
2020/12/13 05:43:19;;;;;;;18.33;12.73;;;3.30;99.90;;;;;;5037472;28;20049;-84
2020/12/13 05:46:06;;;;;;;16.17;11.57;;;3.30;99.90;;;;;;5039572;28;20501;-84
2020/12/13 05:53:47;;;;;;;15.93;11.98;;;3.40;99.90;;;;;;5038481;28;20080;-83
2020/12/13 05:56:22;;;;;;;19.70;11.38;;;3.40;99.90;;;;;;5037980;28;20494;-83
2020/12/13 05:58:52;;;;;;;14.35;10.38;;;3.40;99.90;;;;;;5036231;28;20107;-84
2020/12/13 06:01:23;;;;;;;14.82;10.70;;;3.40;99.90;;;;;;5037103;28;20049;-81
2020/12/13 06:03:54;;;;;;;15.35;11.43;;;3.50;99.90;;;;;;5037131;28;20483;-84
2020/12/13 06:06:25;;;;;;;15.50;10.90;;;3.50;99.90;;;;;;5035569;28;20053;-83
2020/12/13 06:09:06;;;;;;;17.02;11.90;;;3.40;99.90;;;;;;5035393;28;20487;-83
2020/12/13 06:11:45;;;;;;;14.43;10.77;;;3.30;99.90;;;;;;5035917;28;20508;-81
2020/12/13 06:14:21;;;;;;;17.55;12.00;;;3.20;99.90;;;;;;5034500;28;20049;-84
2020/12/13 06:16:49;;;;;;;16.33;11.38;;;3.20;99.90;;;;;;5034355;28;20049;-84
2020/12/13 06:19:20;;;;;;;18.80;12.30;;;3.30;99.90;;;;;;5035376;28;20585;-84
2020/12/13 06:21:47;;;;;;;18.95;13.43;;;3.40;99.90;;;;;;5034519;28;20064;-83
2020/12/13 06:24:14;;;;;;;17.83;12.30;;;3.20;99.90;;;;;;5035952;28;20049;-83
2020/12/13 06:26:41;;;;;;;18.63;12.43;;;3.40;99.90;;;;;;5035162;28;20134;-83
2020/12/13 06:29:07;;;;;;;16.38;11.73;;;3.30;99.90;;;;;;5035905;28;20092;-83
2020/12/13 06:31:35;;;;;;;18.02;11.93;;;3.30;99.90;;;;;;5036003;28;20041;-83
2020/12/13 06:34:04;;;;;;;15.52;11.85;;;3.40;99.90;;;;;;5036136;28;20045;-84
2020/12/13 06:36:37;;;;;;;30.92;19.20;;;3.40;99.90;;;;;;5033953;28;20080;-83
2020/12/13 06:39:17;;;;;;;15.27;12.30;;;3.40;99.90;;;;;;5034502;28;20054;-83
2020/12/13 06:41:47;;;;;;;491.38;248.25;;;3.40;99.90;;;;;;5035712;28;20083;-83
2020/12/13 06:44:14;;;;;;;253.77;120.15;;;3.40;99.90;;;;;;5033956;28;20053;-82
2020/12/13 06:46:43;;;;;;;153.73;79.15;;;3.50;99.90;;;;;;5035332;28;20072;-83
2020/12/13 06:49:14;;;;;;;406.30;205.52;;;3.50;99.90;;;;;;5033704;28;20051;-83
2020/12/13 06:51:43;;;;;;;165.45;84.43;;;3.50;99.90;;;;;;5033847;28;20504;-83
2020/12/13 06:54:14;;;;;;;76.18;41.55;;;3.60;99.90;;;;;;5035493;28;20053;-83
2020/12/13 06:56:41;;;;;;;79.93;42.00;;;3.60;99.90;;;;;;5033753;28;20049;-83
2020/12/13 06:59:09;;;;;;;57.10;30.13;;;3.70;99.90;;;;;;5033686;28;20465;-84
2020/12/13 07:01:43;;;;;;;26.35;17.30;;;3.60;99.90;;;;;;5036161;28;20092;-83
2020/12/13 07:04:22;;;;;;;23.77;18.67;;;3.50;99.90;;;;;;5038780;28;20057;-83
2020/12/13 07:09:43;;;;;;;39.08;33.33;;;3.50;99.90;;;;;;5037638;28;20405;-83
2020/12/13 07:12:10;;;;;;;22.77;19.40;;;3.50;99.90;;;;;;5038825;28;20486;-82
2020/12/13 07:14:38;;;;;;;17.65;12.52;;;3.60;99.90;;;;;;5037295;28;20165;-83
2020/12/13 07:17:11;;;;;;;14.18;10.85;;;3.50;99.90;;;;;;5038459;28;20054;-83
2020/12/13 07:19:38;;;;;;;14.52;11.35;;;3.50;99.90;;;;;;5037448;28;20049;-83
2020/12/13 07:22:08;;;;;;;15.48;11.10;;;3.60;99.90;;;;;;5038226;28;20121;-83
2020/12/13 07:24:40;;;;;;;14.27;11.60;;;3.60;99.90;;;;;;5037925;28;20391;-82
2020/12/13 07:27:08;;;;;;;14.98;11.35;;;3.60;99.90;;;;;;5036505;28;20080;-82
2020/12/13 07:29:34;;;;;;;17.50;13.68;;;3.60;99.90;;;;;;5037455;28;20083;-84
2020/12/13 07:32:02;;;;;;;13.30;10.68;;;3.60;99.90;;;;;;5042613;28;20073;-84
2020/12/13 07:34:29;;;;;;;14.60;11.52;;;3.70;99.90;;;;;;5041692;28;20080;-84
2020/12/13 07:36:57;;;;;;;12.57;9.98;;;3.80;99.90;;;;;;5042086;28;20076;-84
2020/12/13 07:39:23;;;;;;;13.27;10.57;;;3.80;99.90;;;;;;5039958;28;20065;-83
2020/12/13 07:41:51;;;;;;;13.27;10.90;;;3.90;99.90;;;;;;5039582;28;20049;-83
2020/12/13 07:44:18;;;;;;;13.10;9.60;;;3.90;99.90;;;;;;5039237;28;20049;-83
2020/12/13 07:46:46;;;;;;;12.43;9.98;;;3.90;99.90;;;;;;5040463;28;20053;-83
2020/12/13 07:49:18;;;;;;;11.27;9.73;;;3.80;99.90;;;;;;5040115;28;20049;-83
2020/12/13 07:51:52;;;;;;;12.35;9.80;;;3.90;99.90;;;;;;5038355;28;20046;-83
2020/12/13 07:54:21;;;;;;;12.10;9.02;;;3.90;99.90;;;;;;5040193;28;20053;-83
2020/12/13 07:56:52;;;;;;;10.60;9.18;;;4.00;99.90;;;;;;5037780;28;20125;-83
2020/12/13 07:59:21;;;;;;;11.13;9.68;;;3.90;99.90;;;;;;5038629;28;20576;-83
2020/12/13 08:01:49;;;;;;;11.88;9.40;;;4.00;99.90;;;;;;5037637;28;20127;-83
2020/12/13 08:04:29;;;;;;;10.52;8.95;;;4.10;99.90;;;;;;5037627;28;20407;-83
2020/12/13 08:07:00;;;;;;;13.35;9.98;;;4.20;99.90;;;;;;5036682;28;20081;-83
2020/12/13 08:09:27;;;;;;;10.43;8.82;;;4.30;99.90;;;;;;5037789;28;20173;-84
2020/12/13 08:11:53;;;;;;;11.45;9.68;;;4.30;99.90;;;;;;5036746;28;20137;-84
2020/12/13 08:14:22;;;;;;;11.70;9.57;;;4.30;99.90;;;;;;5037345;28;20124;-83
2020/12/13 08:16:52;;;;;;;9.73;8.45;;;4.40;99.90;;;;;;5037752;28;20046;-83
2020/12/13 08:19:32;;;;;;;9.70;8.57;;;4.40;99.90;;;;;;5036002;28;20053;-84
2020/12/13 08:22:20;;;;;;;11.48;9.82;;;4.30;99.90;;;;;;5035290;28;20053;-83
2020/12/13 08:24:58;;;;;;;18.85;13.38;;;4.20;99.90;;;;;;5037034;28;20104;-83
2020/12/13 08:27:30;;;;;;;16.30;13.07;;;4.00;99.90;;;;;;5035309;28;20057;-83
2020/12/13 08:29:58;;;;;;;20.80;13.98;;;4.20;99.90;;;;;;5035942;28;20084;-83
2020/12/13 08:32:31;;;;;;;11.82;9.93;;;4.20;99.90;;;;;;5036932;28;20049;-83
2020/12/13 08:35:18;;;;;;;11.18;9.80;;;4.20;99.90;;;;;;5036050;28;20045;-83
2020/12/13 08:37:58;;;;;;;10.93;9.45;;;4.10;99.90;;;;;;5036775;28;20053;-83
2020/12/13 08:40:39;;;;;;;12.70;10.27;;;4.10;99.90;;;;;;5035854;28;20057;-83
2020/12/13 08:43:07;;;;;;;12.57;8.93;;;4.20;99.90;;;;;;5035088;28;20045;-83
2020/12/13 08:45:34;;;;;;;9.52;8.52;;;4.40;99.90;;;;;;5035385;28;20568;-83
2020/12/13 08:48:08;;;;;;;10.85;7.82;;;4.60;99.90;;;;;;5035650;28;20052;-83
2020/12/13 08:50:40;;;;;;;9.77;8.77;;;4.80;99.90;;;;;;5034916;28;20056;-82
2020/12/13 08:53:23;;;;;;;10.23;8.67;;;5.00;99.90;;;;;;5033121;28;20050;-83
2020/12/13 08:56:03;;;;;;;11.50;8.93;;;5.10;99.90;;;;;;5034926;28;20049;-83
2020/12/13 08:58:29;;;;;;;11.55;8.48;;;5.20;99.90;;;;;;5035934;28;20050;-83
2020/12/13 09:01:06;;;;;;;7.70;7.00;;;5.30;99.90;;;;;;5036478;28;20088;-83
2020/12/13 09:03:33;;;;;;;8.23;6.93;;;5.40;99.90;;;;;;5035188;28;20065;-83
2020/12/13 09:05:59;;;;;;;6.97;6.28;;;5.50;99.90;;;;;;5034957;28;20437;-83
2020/12/13 09:08:25;;;;;;;6.63;5.30;;;5.70;99.90;;;;;;5034342;28;20087;-83
2020/12/13 09:10:53;;;;;;;5.97;5.30;;;5.80;99.90;;;;;;5034267;28;20129;-83
2020/12/13 09:13:20;;;;;;;9.50;6.13;;;5.80;99.90;;;;;;5034641;28;20125;-83
2020/12/13 09:15:46;;;;;;;6.10;5.50;;;6.00;99.90;;;;;;5036110;28;20053;-83
2020/12/13 09:18:13;;;;;;;33.05;19.77;;;6.10;99.90;;;;;;5036349;28;20046;-83
2020/12/13 09:20:41;;;;;;;7.72;6.60;;;6.30;99.90;;;;;;5033450;28;20085;-83
2020/12/13 09:23:13;;;;;;;6.00;4.80;;;6.30;99.90;;;;;;5038188;28;20057;-84
2020/12/13 09:25:44;;;;;;;7.15;4.63;;;6.40;99.90;;;;;;5039440;28;20053;-84
2020/12/13 09:28:12;;;;;;;6.07;5.43;;;6.40;99.90;;;;;;5038869;28;20478;-84
2020/12/13 09:30:40;;;;;;;6.93;5.88;;;6.50;99.90;;;;;;5039387;28;20046;-84
2020/12/13 09:33:08;;;;;;;8.50;6.00;;;6.60;99.90;;;;;;5038018;28;20072;-83
2020/12/13 09:35:34;;;;;;;6.60;5.50;;;6.60;99.90;;;;;;5037401;28;20081;-83
2020/12/13 09:38:03;;;;;;;5.07;4.57;;;6.70;99.90;;;;;;5038772;28;20124;-83
2020/12/13 09:40:30;;;;;;;5.95;4.70;;;6.80;99.90;;;;;;5038789;28;20084;-83
2020/12/13 09:42:57;;;;;;;4.65;4.25;;;6.80;99.90;;;;;;5038212;28;20049;-83
2020/12/13 09:45:23;;;;;;;11.80;9.23;;;6.90;99.90;;;;;;5037610;28;20097;-83
2020/12/13 09:47:50;;;;;;;6.03;5.43;;;7.10;99.90;;;;;;5036558;28;20494;-83
2020/12/13 09:50:21;;;;;;;5.45;4.90;;;7.30;99.90;;;;;;5037208;28;20502;-83
2020/12/13 09:52:47;;;;;;;4.60;4.20;;;7.50;99.90;;;;;;5036773;28;20104;-84
2020/12/13 09:55:13;;;;;;;4.95;4.53;;;7.60;99.90;;;;;;5035259;28;20112;-83
2020/12/13 09:57:40;;;;;;;8.85;7.53;;;7.80;99.90;;;;;;5036522;28;20073;-83
2020/12/13 10:00:06;;;;;;;7.05;6.35;;;7.80;99.90;;;;;;5035675;28;20133;-84
2020/12/13 10:02:33;;;;;;;4.35;3.95;;;7.90;99.90;;;;;;5036181;28;20057;-83
2020/12/13 10:05:01;;;;;;;3.75;3.45;;;7.80;99.90;;;;;;5034282;28;20057;-83
2020/12/13 10:10:13;;;;;;;4.72;4.32;;;7.80;99.90;;;;;;5037016;28;20053;-83
2020/12/13 10:12:40;;;;;;;10.98;9.07;;;7.70;99.90;;;;;;5035180;28;20504;-83
2020/12/13 10:15:06;;;;;;;4.82;4.43;;;7.80;99.90;;;;;;5036374;28;20088;-83
2020/12/13 10:17:32;;;;;;;5.53;5.03;;;7.80;99.90;;;;;;5036861;28;20095;-83
2020/12/13 10:19:59;;;;;;;4.65;4.25;;;7.80;99.90;;;;;;5037159;28;20466;-83
2020/12/13 10:22:25;;;;;;;4.93;4.53;;;7.80;99.90;;;;;;5034431;28;20462;-83
2020/12/13 10:24:51;;;;;;;4.53;4.22;;;7.90;99.90;;;;;;5033336;28;20077;-83
2020/12/13 10:27:17;;;;;;;5.32;4.80;;;8.20;99.90;;;;;;5032550;28;20050;-83
2020/12/13 10:29:44;;;;;;;5.10;4.60;;;8.40;99.90;;;;;;5033281;28;20095;-83
2020/12/13 10:32:10;;;;;;;5.38;4.88;;;8.60;99.90;;;;;;5034829;28;20049;-83
2020/12/13 10:34:37;;;;;;;4.70;4.32;;;8.70;99.90;;;;;;5033222;28;20449;-83
2020/12/13 10:37:04;;;;;;;5.43;5.00;;;8.70;99.90;;;;;;5033557;28;20099;-82
2020/12/13 10:39:35;;;;;;;4.70;4.30;;;8.70;99.90;;;;;;5033129;28;20107;-82
2020/12/13 10:42:05;;;;;;;4.40;4.07;;;8.60;99.90;;;;;;5034037;28;20136;-83
2020/12/13 10:44:31;;;;;;;5.10;4.70;;;8.60;99.90;;;;;;5033868;28;20095;-82
2020/12/13 10:46:57;;;;;;;4.25;3.95;;;8.50;99.90;;;;;;5032965;28;20092;-83
2020/12/13 10:49:25;;;;;;;4.55;4.15;;;8.30;99.90;;;;;;5035340;28;20052;-83
2020/12/13 10:51:53;;;;;;;4.78;4.32;;;8.30;99.90;;;;;;5033955;28;20049;-83
2020/12/13 10:54:20;;;;;;;5.03;4.18;;;8.40;99.90;;;;;;5032279;28;20080;-83
2020/12/13 10:56:46;;;;;;;4.22;3.92;;;8.40;99.90;;;;;;5033041;28;20413;-82
2020/12/13 10:59:12;;;;;;;4.20;3.90;;;8.20;99.90;;;;;;5034514;28;20045;-83
2020/12/13 11:01:39;;;;;;;4.50;4.07;;;8.10;99.90;;;;;;5036593;28;20579;-83
2020/12/13 11:04:06;;;;;;;5.35;4.15;;;8.10;99.90;;;;;;5034335;28;20520;-84
2020/12/13 11:06:32;;;;;;;5.40;4.85;;;8.00;99.90;;;;;;5034051;28;20486;-83
2020/12/13 11:09:01;;;;;;;4.97;4.47;;;7.90;99.90;;;;;;5025574;28;20414;-84
2020/12/13 11:11:28;;;;;;;4.72;4.10;;;7.90;99.90;;;;;;5024706;28;20052;-83
2020/12/13 11:13:54;;;;;;;4.10;3.80;;;7.90;99.90;;;;;;5022865;28;20038;-84
2020/12/13 11:16:20;;;;;;;4.35;3.92;;;7.90;99.90;;;;;;5028703;28;20068;-84
2020/12/13 11:18:47;;;;;;;4.43;4.03;;;7.80;99.90;;;;;;5036508;28;20482;-83
2020/12/13 11:21:13;;;;;;;6.00;4.78;;;7.90;99.90;;;;;;5038694;28;20085;-84
2020/12/13 11:23:40;;;;;;;6.80;5.38;;;8.00;99.90;;;;;;5037081;28;20060;-83
2020/12/13 11:26:07;;;;;;;5.50;5.00;;;8.10;99.90;;;;;;5038064;28;20050;-83
2020/12/13 11:28:33;;;;;;;4.55;4.15;;;8.10;99.90;;;;;;5036380;28;20119;-83
2020/12/13 11:31:00;;;;;;;4.47;4.10;;;8.00;99.90;;;;;;5037222;28;20092;-83
2020/12/13 11:33:26;;;;;;;4.15;3.85;;;7.90;99.90;;;;;;5036409;28;20391;-82
2020/12/13 11:35:53;;;;;;;4.43;3.50;;;7.90;99.90;;;;;;5036142;28;20041;-82
2020/12/13 11:38:19;;;;;;;3.88;3.58;;;8.00;99.90;;;;;;5035585;28;20050;-83
2020/12/13 11:40:45;;;;;;;4.82;3.78;;;8.00;99.90;;;;;;5035919;28;20057;-83
2020/12/13 11:43:11;;;;;;;4.40;4.00;;;8.10;99.90;;;;;;5036643;28;20080;-82
2020/12/13 11:45:38;;;;;;;5.32;4.00;;;8.20;99.90;;;;;;5036408;28;20049;-83
2020/12/13 11:48:05;;;;;;;5.20;4.65;;;8.30;99.90;;;;;;5035464;28;20077;-82
2020/12/13 11:50:40;;;;;;;4.22;3.60;;;8.30;99.90;;;;;;5039094;28;20045;-83
2020/12/13 11:53:08;;;;;;;4.38;3.97;;;8.40;99.90;;;;;;5036825;28;20045;-83
2020/12/13 11:55:35;;;;;;;4.63;4.22;;;8.30;99.90;;;;;;5037646;28;20477;-82
2020/12/13 11:58:02;;;;;;;4.30;3.90;;;8.30;99.90;;;;;;5027536;28;20048;-83
2020/12/13 12:00:28;;;;;;;3.90;3.60;;;8.20;99.90;;;;;;5038060;28;20053;-83
2020/12/13 12:02:54;;;;;;;4.68;4.30;;;8.10;99.90;;;;;;5037668;28;20464;-82
2020/12/13 12:05:21;;;;;;;4.43;4.03;;;8.10;99.90;;;;;;5036299;28;20119;-83
2020/12/13 12:07:47;;;;;;;4.00;3.70;;;8.10;99.90;;;;;;5038100;28;20080;-82
2020/12/13 12:10:13;;;;;;;4.53;4.13;;;8.00;99.90;;;;;;5038466;28;20084;-82
2020/12/13 12:12:40;;;;;;;4.53;4.13;;;7.90;99.90;;;;;;5034648;28;20084;-83
2020/12/13 12:15:06;;;;;;;4.07;3.67;;;7.90;99.90;;;;;;5026360;28;20049;-82
2020/12/13 12:17:32;;;;;;;6.53;4.90;;;7.90;99.90;;;;;;5028691;28;20467;-82
2020/12/13 12:19:59;;;;;;;6.00;4.90;;;7.80;99.90;;;;;;5027431;28;20053;-83
2020/12/13 12:22:25;;;;;;;4.40;4.00;;;7.80;99.90;;;;;;5025631;28;20041;-82
2020/12/13 12:24:52;;;;;;;5.13;4.50;;;7.80;99.90;;;;;;5024087;28;20049;-82
2020/12/13 12:27:18;;;;;;;5.25;4.35;;;7.80;99.90;;;;;;5019154;28;20049;-83
2020/12/13 12:29:44;;;;;;;4.63;3.95;;;7.70;99.90;;;;;;5017742;28;20163;-82
2020/12/13 12:32:10;;;;;;;4.20;3.80;;;7.70;99.90;;;;;;5018900;28;20042;-83
2020/12/13 12:34:37;;;;;;;4.20;3.90;;;7.70;99.90;;;;;;5024154;28;20050;-83
2020/12/13 12:37:03;;;;;;;3.65;3.40;;;7.80;99.90;;;;;;5026484;28;20050;-83
2020/12/13 12:39:30;;;;;;;4.35;3.60;;;7.70;99.90;;;;;;5028027;28;20136;-82
2020/12/13 12:41:56;;;;;;;3.38;3.08;;;7.80;99.90;;;;;;5036391;28;20072;-82
2020/12/13 12:44:22;;;;;;;4.35;3.60;;;7.80;99.90;;;;;;5037642;28;20111;-83
2020/12/13 12:46:49;;;;;;;3.80;3.50;;;7.80;99.90;;;;;;5037889;28;20076;-83
2020/12/13 12:49:15;;;;;;;3.58;3.30;;;7.80;99.90;;;;;;5036599;28;20046;-82
2020/12/13 12:51:41;;;;;;;3.30;3.03;;;8.00;99.90;;;;;;5039052;28;20049;-82
2020/12/13 12:54:08;;;;;;;3.58;3.30;;;8.00;99.90;;;;;;5036367;28;20065;-83
2020/12/13 12:56:34;;;;;;;4.60;4.15;;;8.10;99.90;;;;;;5035527;28;20407;-83
2020/12/13 12:59:04;;;;;;;4.60;4.20;;;8.10;99.90;;;;;;5035229;28;20080;-83